Briefing drone pour Lalinde

Rechercher une autre localisation

Conditions de vol :


Nous sommes le : Lundi 02 août 2021
Il est 00:07 UTC (02:07 LT)

Lever de soleil : 04:18 UTC (06:18 LT)
Coucher de soleil : 19:48 UTC (21:48 LT)

Météo

L'essentiel des conditions de vol

VIGILANCE MÉTÉO FRANCE - Dordogne (24)
Pas de vigilances particulieres
CARTE TEMSI
CARTES DES FRONTS
METAR de LFBE
LFBE 020000Z AUTO 09001KT 0800 R27/1100D FG NSC 12/11 Q1017 NOSIG

Date d'émission: 02/08/2021
Heure d'émission: 00:00 UTC
Vent: 090° pour 1 KT (2 km/h)
Visibilité horizontale: 0800/R27/1100D m
Plafond : Pas de nuages significatifs (NSC)
Température: 12 °C
Point de rosée: 11 °C
Humidité: 94%
Pression (QNH): 1017 hPa
Conditions: Brouillard, Pas de changement dans les 2 heures (NOSIG)
TAF de LFBE
LFBE 012015Z 0120/0212 CNL

Conditions prévues :

Heure d'émission : Bulletin éffectué le 01 à 20:00 UTC
Prévision : Valide du 01 a 20:00 UTC au 02 a 12:00 UTC
Nuages : à 0ft (0 m)
WEBCAM POUR LALINDE

Réglementation

Voler en sécurité

CARTES AERONAUTIQUE 1/500.000
CARTES VAC (LFBE)
SUP AIP




Chargement des AIP...
NOTAM (LALINDE + Terrain à proximité / FIR )




Chargement des NOTAMS...
CONTACT PREFECTURE 24


Avertissement : Les données mises à disposition sont indicatives. Oxygène Drone ne pourra être tenu responsable de dégâts causés aux biens et aux personnes.